createdAt,value
2018-11-23T00:00:16.067Z,22.77
2018-11-23T00:05:19.497Z,19.27
2018-11-23T00:10:23.941Z,21.97
2018-11-23T00:15:27.198Z,22.57
2018-11-23T00:20:30.875Z,20.80
2018-11-23T00:25:34.034Z,21.20
2018-11-23T00:30:37.243Z,18.33
2018-11-23T00:35:40.400Z,19.47
2018-11-23T00:40:43.625Z,19.87
2018-11-23T00:45:47.658Z,19.73
2018-11-23T00:50:50.854Z,20.53
2018-11-23T00:55:54.001Z,23.70
2018-11-23T01:00:57.175Z,19.40
2018-11-23T01:06:00.331Z,22.90
2018-11-23T01:11:03.517Z,19.47
2018-11-23T01:16:06.694Z,21.03
2018-11-23T01:21:09.846Z,19.20
2018-11-23T01:26:13.007Z,25.07
2018-11-23T01:31:16.146Z,20.83
2018-11-23T01:36:19.323Z,21.10
2018-11-23T01:41:22.463Z,20.27
2018-11-23T01:46:25.612Z,21.37
2018-11-23T01:51:35.281Z,20.43
2018-11-23T01:56:38.418Z,24.27
2018-11-23T02:01:41.626Z,23.63
2018-11-23T02:06:44.763Z,21.43
2018-11-23T02:11:47.894Z,20.57
2018-11-23T02:16:51.026Z,22.30
2018-11-23T02:21:54.290Z,21.73
2018-11-23T02:26:57.430Z,22.83
2018-11-23T02:32:00.669Z,20.73
2018-11-23T02:37:03.881Z,21.93
2018-11-23T02:42:07.293Z,20.77
2018-11-23T02:47:10.440Z,21.20
2018-11-23T02:52:13.615Z,21.50
2018-11-23T02:57:16.763Z,25.70
2018-11-23T03:02:19.903Z,18.87
2018-11-23T03:07:23.090Z,20.00
2018-11-23T03:12:26.230Z,21.10
2018-11-23T03:17:29.373Z,20.27
2018-11-23T03:22:32.510Z,23.27
2018-11-23T03:27:35.647Z,20.23
2018-11-23T03:32:38.890Z,18.77
2018-11-23T03:37:42.296Z,20.80
2018-11-23T03:42:45.446Z,19.20
2018-11-23T03:47:48.600Z,23.10
2018-11-23T03:52:51.742Z,20.57
2018-11-23T03:57:54.891Z,21.03
2018-11-23T04:02:58.038Z,19.03
2018-11-23T04:08:01.185Z,20.23
2018-11-23T04:13:04.362Z,18.27
2018-11-23T04:18:07.516Z,19.17
2018-11-23T04:23:10.678Z,21.77
2018-11-23T04:28:13.823Z,19.00
2018-11-23T04:33:17.010Z,18.83
2018-11-23T04:38:20.154Z,20.00
2018-11-23T04:43:23.342Z,20.53
2018-11-23T04:48:26.467Z,19.00
2018-11-23T04:53:29.630Z,18.53
2018-11-23T04:58:32.780Z,20.13
2018-11-23T05:03:35.930Z,20.60
2018-11-23T05:08:39.086Z,22.70
2018-11-23T05:13:42.223Z,21.97
2018-11-23T05:18:45.376Z,21.23
2018-11-23T05:23:48.510Z,18.57
2018-11-23T05:28:51.670Z,19.93
2018-11-23T05:33:54.809Z,21.00
2018-11-23T05:38:57.960Z,19.77
2018-11-23T05:44:01.126Z,20.97
2018-11-23T05:49:04.531Z,20.10
2018-11-23T05:54:07.671Z,20.47
2018-11-23T05:59:11.187Z,19.50
2018-11-23T06:04:14.574Z,20.73
2018-11-23T06:09:17.785Z,20.70
2018-11-23T06:14:20.931Z,25.00
2018-11-23T06:19:24.139Z,22.77
2018-11-23T06:24:31.959Z,25.67
2018-11-23T06:29:30.543Z,22.40
2018-11-23T06:34:33.679Z,23.23
2018-11-23T06:39:36.854Z,23.23
2018-11-23T06:44:40.012Z,19.77
2018-11-23T06:49:44.382Z,23.77
2018-11-23T06:54:47.547Z,24.90
2018-11-23T06:59:57.194Z,26.63
2018-11-23T07:05:00.358Z,25.77
2018-11-23T07:10:03.523Z,27.37
2018-11-23T07:15:08.705Z,26.60
2018-11-23T07:20:13.469Z,26.63
2018-11-23T07:25:16.622Z,25.90
2018-11-23T07:30:22.234Z,27.13
2018-11-23T07:35:25.399Z,28.83
2018-11-23T07:40:41.870Z,27.13
2018-11-23T07:45:45.019Z,26.90
2018-11-23T07:50:48.220Z,25.40
2018-11-23T07:55:51.363Z,27.17
2018-11-23T08:00:54.507Z,27.10
2018-11-23T08:05:57.662Z,27.47
2018-11-23T08:11:05.018Z,34.90
2018-11-23T08:16:08.207Z,29.03
2018-11-23T08:21:11.366Z,28.40
2018-11-23T08:26:14.611Z,29.27
2018-11-23T08:31:17.759Z,26.47
2018-11-23T08:36:21.083Z,30.00
2018-11-23T08:41:24.378Z,29.70
2018-11-23T08:46:27.603Z,28.67
2018-11-23T08:51:30.751Z,28.63
2018-11-23T08:56:33.886Z,30.97
2018-11-23T09:01:37.058Z,28.80
2018-11-23T09:06:40.227Z,31.57
2018-11-23T09:11:43.338Z,33.33
2018-11-23T09:16:46.461Z,29.37
2018-11-23T09:21:50.414Z,29.33
2018-11-23T09:26:53.542Z,29.10
2018-11-23T09:31:56.886Z,32.27
2018-11-23T09:37:00.025Z,29.47
2018-11-23T09:42:03.159Z,32.83
2018-11-23T09:47:10.236Z,31.90
2018-11-23T09:52:09.510Z,34.47
2018-11-23T09:57:12.647Z,29.73
2018-11-23T10:02:15.776Z,31.23
2018-11-23T10:07:18.939Z,27.23
2018-11-23T10:12:22.046Z,29.30
2018-11-23T10:17:25.179Z,38.27
2018-11-23T10:22:28.320Z,32.27
2018-11-23T10:27:31.458Z,28.77
2018-11-23T10:32:34.578Z,32.10
2018-11-23T10:37:38.222Z,33.83
2018-11-23T10:42:41.838Z,31.60
2018-11-23T10:47:45.184Z,28.23
2018-11-23T10:52:48.550Z,27.83
2018-11-23T10:57:51.806Z,28.90
2018-11-23T11:03:00.478Z,31.70
2018-11-23T11:08:04.326Z,28.60
2018-11-23T11:13:07.467Z,28.37
2018-11-23T11:18:10.634Z,27.70
2018-11-23T11:23:13.851Z,28.27
2018-11-23T11:28:17.046Z,28.07
2018-11-23T11:33:20.169Z,27.70
2018-11-23T11:38:23.311Z,30.40
2018-11-23T11:43:26.435Z,31.07
2018-11-23T11:48:29.559Z,29.07
2018-11-23T11:53:32.677Z,31.20
2018-11-23T11:58:35.807Z,29.37
2018-11-23T12:03:38.930Z,29.80
2018-11-23T12:08:42.238Z,30.77
2018-11-23T12:13:45.450Z,29.00
2018-11-23T12:18:48.661Z,26.53
2018-11-23T12:23:51.875Z,27.90
2018-11-23T12:28:55.130Z,27.40
2018-11-23T12:33:58.259Z,28.73
2018-11-23T12:39:01.483Z,25.53
2018-11-23T12:44:04.736Z,27.07
2018-11-23T12:49:07.939Z,26.27
2018-11-23T12:54:11.118Z,28.93
2018-11-23T12:59:14.323Z,26.07
2018-11-23T13:04:17.540Z,27.60
2018-11-23T13:09:20.752Z,26.77
2018-11-23T13:14:23.977Z,30.87
2018-11-23T13:19:27.162Z,23.73
2018-11-23T13:24:30.378Z,25.10
2018-11-23T13:29:33.590Z,26.73
2018-11-23T13:34:39.560Z,25.47
2018-11-23T13:39:43.214Z,22.57
2018-11-23T13:44:46.396Z,24.03
2018-11-23T13:49:49.599Z,24.20
2018-11-23T13:54:52.814Z,25.17
2018-11-23T13:59:55.952Z,25.67
2018-11-23T14:04:59.130Z,25.33
2018-11-23T14:10:02.331Z,23.87
2018-11-23T14:15:07.973Z,22.33
2018-11-23T14:20:12.458Z,24.70
2018-11-23T14:25:17.049Z,26.67
2018-11-23T14:30:21.535Z,26.10
2018-11-23T14:35:26.282Z,26.33
2018-11-23T14:40:29.520Z,29.90
2018-11-23T14:45:33.836Z,23.67
2018-11-23T14:50:52.574Z,23.73
2018-11-23T14:55:55.803Z,24.70
2018-11-23T15:00:59.025Z,25.87
2018-11-23T15:06:02.214Z,22.40
2018-11-23T15:11:05.910Z,26.80
2018-11-23T15:16:09.155Z,27.70
2018-11-23T15:21:12.366Z,26.83
2018-11-23T15:26:15.578Z,27.20
2018-11-23T15:31:18.794Z,26.37
2018-11-23T15:36:22.008Z,26.33
2018-11-23T15:41:25.209Z,25.77
2018-11-23T15:46:28.425Z,22.47
2018-11-23T15:51:31.662Z,27.27
2018-11-23T15:56:34.933Z,24.93
2018-11-23T16:01:38.154Z,24.17
2018-11-23T16:06:41.420Z,24.63
2018-11-23T16:11:44.587Z,26.83
2018-11-23T16:16:47.750Z,23.87
2018-11-23T16:21:50.894Z,27.43
2018-11-23T16:26:54.054Z,23.63
2018-11-23T16:31:57.431Z,27.53
2018-11-23T16:37:00.616Z,25.73
2018-11-23T16:42:04.121Z,25.23
2018-11-23T16:47:07.362Z,25.57
2018-11-23T16:52:10.514Z,24.57
2018-11-23T16:57:13.984Z,27.57
2018-11-23T17:02:17.179Z,25.60
2018-11-23T17:07:20.639Z,23.97
2018-11-23T17:12:23.819Z,29.07
2018-11-23T17:17:27.018Z,29.77
2018-11-23T17:22:30.343Z,27.73
2018-11-23T17:27:33.637Z,26.83
2018-11-23T17:32:36.965Z,29.27
2018-11-23T17:37:40.678Z,25.47
2018-11-23T17:42:43.919Z,29.20
2018-11-23T17:47:47.319Z,26.00
2018-11-23T17:52:50.926Z,26.50
2018-11-23T17:57:54.963Z,50.30
2018-11-23T18:02:59.015Z,29.60
2018-11-23T18:08:02.752Z,29.43
2018-11-23T18:13:05.926Z,29.43
2018-11-23T18:18:09.117Z,27.20
2018-11-23T18:23:12.338Z,28.47
2018-11-23T18:28:15.586Z,28.40
2018-11-23T18:33:18.743Z,30.27
2018-11-23T18:38:21.971Z,29.77
2018-11-23T18:43:25.193Z,32.10
2018-11-23T18:48:28.358Z,33.13
2018-11-23T18:53:31.594Z,30.80
2018-11-23T18:58:34.819Z,30.53
2018-11-23T19:03:38.051Z,33.67
2018-11-23T19:08:41.227Z,28.50
2018-11-23T19:13:44.481Z,32.07
2018-11-23T19:18:47.662Z,30.53
2018-11-23T19:23:50.840Z,34.47
2018-11-23T19:28:54.074Z,34.07
2018-11-23T19:33:59.401Z,33.17
2018-11-23T19:39:00.471Z,33.87
2018-11-23T19:44:03.689Z,34.83
2018-11-23T19:49:06.892Z,32.90
2018-11-23T19:54:10.114Z,41.50
2018-11-23T19:59:13.310Z,53.20
2018-11-23T20:04:16.527Z,50.33
2018-11-23T20:09:19.734Z,55.07
2018-11-23T20:14:22.958Z,44.20
2018-11-23T20:19:26.167Z,47.97
2018-11-23T20:24:29.405Z,42.30
2018-11-23T20:29:32.610Z,42.07
2018-11-23T20:34:35.791Z,38.33
2018-11-23T20:39:39.018Z,31.40
2018-11-23T20:44:42.214Z,29.30
2018-11-23T20:49:45.905Z,26.67
2018-11-23T20:54:48.759Z,32.00
2018-11-23T20:59:51.935Z,37.27
2018-11-23T21:04:55.161Z,34.67
2018-11-23T21:09:58.402Z,33.73
2018-11-23T21:15:01.567Z,30.87
2018-11-23T21:20:05.254Z,32.60
2018-11-23T21:25:09.283Z,31.00
2018-11-23T21:30:16.378Z,29.20
2018-11-23T21:35:19.652Z,30.73
2018-11-23T21:40:22.829Z,39.17
2018-11-23T21:45:25.964Z,41.10
2018-11-23T21:50:29.263Z,38.43
2018-11-23T21:55:32.411Z,38.97
2018-11-23T22:00:35.562Z,33.03
2018-11-23T22:05:38.950Z,32.87
2018-11-23T22:10:42.199Z,31.00
2018-11-23T22:15:45.335Z,34.53
2018-11-23T22:20:48.508Z,31.10
2018-11-23T22:25:51.648Z,32.60
2018-11-23T22:30:54.782Z,32.23
2018-11-23T22:35:57.917Z,29.73
2018-11-23T22:41:01.151Z,32.30
2018-11-23T22:46:04.336Z,30.33
2018-11-23T22:51:07.562Z,32.30
2018-11-23T22:56:10.698Z,28.53
2018-11-23T23:01:13.879Z,28.67
2018-11-23T23:06:17.022Z,30.93
2018-11-23T23:11:20.163Z,32.67
2018-11-23T23:16:23.310Z,28.83
2018-11-23T23:21:26.513Z,26.47
2018-11-23T23:26:29.654Z,27.17
2018-11-23T23:31:32.801Z,30.40
2018-11-23T23:36:36.051Z,28.40
2018-11-23T23:41:39.277Z,28.03
2018-11-23T23:46:42.499Z,28.67
2018-11-23T23:51:45.666Z,27.83
2018-11-23T23:56:48.834Z,26.07
